Time;durP1;ratioP1;P1;durP2;ratioP2;P2;SDS_P1;SDS_P2;PMS_P1;PMS_P2;Temp;Humidity;BMP_temperature;BMP_pressure;BME280_temperature;BME280_humidity;BME280_pressure;Samples;Min_cycle;Max_cycle;Signal;HPM_P1;HPM_P2
2022/04/30 05:03:53;;;;;;;33.92;20.70;;;11.40;99.90;;;;;;4886200;29;20072;-74
2022/04/30 05:06:18;;;;;;;34.13;21.00;;;11.40;99.90;;;;;;4887345;29;20033;-74
2022/04/30 05:08:46;;;;;;;34.97;20.40;;;11.40;99.90;;;;;;4888396;29;20049;-74
2022/04/30 05:11:14;;;;;;;36.55;20.90;;;11.50;99.90;;;;;;4887879;29;20033;-74
2022/04/30 05:13:40;;;;;;;33.20;20.70;;;11.50;99.90;;;;;;4887028;29;20041;-75
2022/04/30 05:16:06;;;;;;;39.92;22.85;;;11.50;99.90;;;;;;4887660;29;20274;-74
2022/04/30 05:18:31;;;;;;;33.95;20.95;;;11.50;99.90;;;;;;4888155;29;20484;-74
2022/04/30 05:20:57;;;;;;;38.30;23.38;;;11.50;99.90;;;;;;4888308;29;20025;-75
2022/04/30 05:23:23;;;;;;;37.67;22.08;;;11.40;99.90;;;;;;4888326;29;20028;-75
2022/04/30 05:25:48;;;;;;;38.58;22.60;;;11.40;99.90;;;;;;4888391;29;20033;-75
2022/04/30 05:28:17;;;;;;;34.15;21.08;;;11.30;99.90;;;;;;4887694;29;20266;-76
2022/04/30 05:30:43;;;;;;;40.20;22.75;;;11.30;99.90;;;;;;4887658;29;20074;-76
2022/04/30 05:33:09;;;;;;;34.08;21.90;;;11.20;99.90;;;;;;4887609;29;20029;-74
2022/04/30 05:35:34;;;;;;;38.80;21.80;;;11.30;99.90;;;;;;4888191;29;20260;-74
2022/04/30 05:38:00;;;;;;;37.22;21.63;;;11.40;99.90;;;;;;4887819;29;20032;-74
2022/04/30 05:40:26;;;;;;;40.15;22.42;;;11.40;99.90;;;;;;4887935;29;20176;-74
2022/04/30 05:42:51;;;;;;;39.97;22.80;;;11.40;99.90;;;;;;4888022;29;20244;-74
2022/04/30 05:45:17;;;;;;;33.35;21.58;;;11.50;99.90;;;;;;4887244;29;20071;-74
2022/04/30 05:47:43;;;;;;;36.72;21.90;;;11.40;99.90;;;;;;4888267;29;20141;-74
2022/04/30 05:50:09;;;;;;;35.60;21.35;;;11.40;99.90;;;;;;4887573;29;20109;-74
2022/04/30 05:52:35;;;;;;;34.35;21.65;;;11.50;99.90;;;;;;4888285;29;20319;-74
2022/04/30 05:55:05;;;;;;;37.65;21.48;;;11.60;99.90;;;;;;4886828;29;20048;-75
2022/04/30 05:57:31;;;;;;;32.05;20.85;;;11.60;99.90;;;;;;4889245;29;20087;-76
2022/04/30 05:59:58;;;;;;;36.97;22.60;;;11.70;99.90;;;;;;4890816;29;20017;-74
2022/04/30 06:02:25;;;;;;;30.65;19.73;;;11.80;99.90;;;;;;4877892;29;20121;-74
2022/04/30 06:04:50;;;;;;;28.17;19.80;;;11.80;99.90;;;;;;4877704;29;20029;-74
2022/04/30 06:07:17;;;;;;;32.75;20.55;;;11.80;99.90;;;;;;4890667;29;20061;-74
2022/04/30 06:09:45;;;;;;;32.72;19.33;;;11.70;99.90;;;;;;4891749;29;20029;-76
2022/04/30 06:12:11;;;;;;;32.35;21.20;;;11.80;99.90;;;;;;4890907;29;20025;-75
2022/04/30 06:14:37;;;;;;;31.33;20.48;;;11.80;99.90;;;;;;4891318;29;20045;-76
2022/04/30 06:17:04;;;;;;;33.20;21.20;;;11.80;99.90;;;;;;4890102;29;20037;-76
2022/04/30 06:19:30;;;;;;;34.47;20.27;;;11.80;99.90;;;;;;4891033;29;20310;-76
2022/04/30 06:21:55;;;;;;;32.65;20.52;;;11.80;99.90;;;;;;4891137;29;20096;-76
2022/04/30 06:24:21;;;;;;;29.25;18.95;;;11.80;99.90;;;;;;4890761;29;20037;-74
2022/04/30 06:26:47;;;;;;;33.95;19.10;;;11.90;99.90;;;;;;4891139;29;20036;-74
2022/04/30 06:29:13;;;;;;;31.55;19.83;;;12.00;99.90;;;;;;4889317;29;20021;-74
2022/04/30 06:31:39;;;;;;;27.88;19.55;;;12.10;99.90;;;;;;4890314;29;20068;-74
2022/04/30 06:34:05;;;;;;;27.50;18.20;;;12.30;99.90;;;;;;4890114;29;20056;-74
2022/04/30 06:36:31;;;;;;;28.52;18.67;;;12.40;99.90;;;;;;4889728;29;20037;-74
2022/04/30 06:38:57;;;;;;;32.95;19.10;;;12.50;99.90;;;;;;4890804;29;20036;-74
2022/04/30 06:41:23;;;;;;;31.10;19.02;;;12.60;99.90;;;;;;4890149;29;20096;-73
2022/04/30 06:43:51;;;;;;;28.38;17.70;;;12.80;99.90;;;;;;4890543;29;20036;-74
2022/04/30 06:46:17;;;;;;;26.70;17.80;;;12.80;99.90;;;;;;4889818;29;20121;-73
2022/04/30 06:48:46;;;;;;;26.20;17.77;;;12.80;99.90;;;;;;4890685;29;20038;-73
2022/04/30 06:51:12;;;;;;;31.48;18.60;;;12.70;99.90;;;;;;4890162;29;20096;-73
2022/04/30 06:59:11;;;;;;;25.98;17.25;;;12.80;99.90;;;;;;4892819;29;20044;-74
2022/04/30 07:01:43;;;;;;;25.67;18.02;;;12.70;99.90;;;;;;4883298;29;20260;-73
2022/04/30 07:04:10;;;;;;;24.15;16.52;;;12.80;99.90;;;;;;4871328;29;20048;-75
2022/04/30 07:06:38;;;;;;;22.00;15.65;;;13.00;99.90;;;;;;4870204;29;20065;-74
2022/04/30 07:09:06;;;;;;;27.42;17.95;;;12.90;99.90;;;;;;4870537;29;20037;-74
2022/04/30 07:11:32;;;;;;;26.70;17.42;;;12.70;99.90;;;;;;4877986;29;20027;-75
2022/04/30 07:14:00;;;;;;;23.67;16.05;;;12.70;99.90;;;;;;4889211;29;20061;-76
2022/04/30 07:16:26;;;;;;;;;;;12.60;99.90;;;;;;4889717;29;20161;-75
2022/04/30 07:18:52;;;;;;;25.38;16.33;;;12.70;99.90;;;;;;4889932;29;19932;-74
2022/04/30 07:21:18;;;;;;;27.23;16.98;;;12.70;99.90;;;;;;4889433;29;20025;-75
2022/04/30 07:23:43;;;;;;;26.95;17.00;;;12.80;99.90;;;;;;4889843;29;20045;-75
2022/04/30 07:26:09;;;;;;;25.02;16.85;;;12.70;99.90;;;;;;4889620;29;20061;-75
2022/04/30 07:28:35;;;;;;;26.00;17.45;;;12.70;99.90;;;;;;4889967;29;20370;-75
2022/04/30 07:31:05;;;;;;;27.45;16.85;;;12.70;99.90;;;;;;4888988;29;20056;-75
2022/04/30 07:33:31;;;;;;;23.73;15.88;;;12.80;99.90;;;;;;4889557;29;20036;-75
2022/04/30 07:35:57;;;;;;;23.85;16.02;;;12.70;99.90;;;;;;4889426;29;20060;-73
2022/04/30 07:38:23;;;;;;;23.60;15.82;;;12.80;99.90;;;;;;4889393;29;20039;-74
2022/04/30 07:40:49;;;;;;;26.13;16.45;;;12.70;99.90;;;;;;4889630;29;20033;-73
2022/04/30 07:43:15;;;;;;;25.30;16.17;;;12.70;99.90;;;;;;4888223;29;20140;-75
2022/04/30 07:45:41;;;;;;;24.42;15.65;;;12.80;99.90;;;;;;4891343;29;20045;-75
2022/04/30 07:48:10;;;;;;;24.55;15.00;;;12.70;99.90;;;;;;4878362;29;20361;-74
2022/04/30 07:50:36;;;;;;;22.67;15.70;;;12.70;99.90;;;;;;4891528;29;20342;-74
2022/04/30 07:53:06;;;;;;;24.67;16.55;;;12.60;99.90;;;;;;4902202;29;20129;-76
2022/04/30 07:55:33;;;;;;;29.70;16.90;;;12.70;99.90;;;;;;4889566;29;20045;-74
2022/04/30 07:57:59;;;;;;;23.17;16.20;;;12.70;99.90;;;;;;4889538;29;20039;-74
2022/04/30 08:00:26;;;;;;;23.80;16.40;;;12.70;99.90;;;;;;4888285;29;20045;-74
2022/04/30 08:02:54;;;;;;;22.75;15.57;;;12.80;99.90;;;;;;4888819;29;20109;-74
2022/04/30 08:05:20;;;;;;;23.10;15.82;;;12.90;99.90;;;;;;4888285;29;20062;-74
2022/04/30 08:07:46;;;;;;;22.38;16.33;;;13.00;99.90;;;;;;4889199;29;20036;-74
2022/04/30 08:10:12;;;;;;;21.67;15.50;;;13.10;99.90;;;;;;4887625;29;20041;-74
2022/04/30 08:12:37;;;;;;;19.63;14.90;;;13.20;99.90;;;;;;4889853;29;20144;-74
2022/04/30 08:15:04;;;;;;;20.63;14.70;;;13.30;99.90;;;;;;4888569;29;20033;-75
2022/04/30 08:17:29;;;;;;;22.08;15.20;;;13.40;99.90;;;;;;4886995;29;20036;-75
2022/04/30 08:19:56;;;;;;;20.42;14.90;;;13.40;99.90;;;;;;4888893;29;20033;-75
2022/04/30 08:22:22;;;;;;;19.00;13.55;;;13.50;99.90;;;;;;4887624;29;20367;-74
2022/04/30 08:24:48;;;;;;;21.67;14.45;;;13.60;99.90;;;;;;4887866;29;20067;-75
2022/04/30 08:27:14;;;;;;;20.52;14.73;;;13.70;99.90;;;;;;4888048;29;20219;-74
2022/04/30 08:29:39;;;;;;;20.05;14.98;;;13.70;99.90;;;;;;4889011;29;20265;-74
2022/04/30 08:32:06;;;;;;;18.67;13.57;;;13.80;99.90;;;;;;4888285;29;20048;-74
2022/04/30 08:34:32;;;;;;;20.38;14.25;;;13.70;99.90;;;;;;4888343;29;20037;-75
2022/04/30 08:36:58;;;;;;;18.67;13.38;;;13.60;99.90;;;;;;4888773;29;20227;-75
2022/04/30 08:39:24;;;;;;;20.35;13.95;;;13.50;99.90;;;;;;4886975;29;20041;-74
2022/04/30 08:41:50;;;;;;;20.23;13.82;;;13.50;99.90;;;;;;4888303;29;20375;-74
2022/04/30 08:44:17;;;;;;;18.05;13.93;;;13.40;99.90;;;;;;4887946;29;20071;-74
2022/04/30 08:46:44;;;;;;;18.15;13.10;;;13.50;99.90;;;;;;4874971;29;20318;-74
2022/04/30 08:49:11;;;;;;;18.27;13.93;;;13.40;99.90;;;;;;4885048;29;20345;-76
2022/04/30 08:51:40;;;;;;;20.30;13.85;;;13.30;99.90;;;;;;4888496;29;20041;-75
2022/04/30 08:54:06;;;;;;;19.83;13.90;;;13.20;99.90;;;;;;4886993;29;20048;-76
2022/04/30 08:56:35;;;;;;;18.90;12.85;;;13.10;99.90;;;;;;4897166;29;20044;-74
2022/04/30 08:59:03;;;;;;;;;;;13.10;99.90;;;;;;4896874;29;20037;-77
2022/04/30 09:01:29;;;;;;;18.40;12.93;;;13.00;99.90;;;;;;4892702;29;19911;-77
2022/04/30 09:03:56;;;;;;;18.65;12.95;;;12.70;99.90;;;;;;4897945;29;20072;-75
2022/04/30 09:06:24;;;;;;;18.08;14.50;;;12.50;99.90;;;;;;4906242;29;20039;-76
2022/04/30 09:08:51;;;;;;;20.30;14.38;;;12.50;99.90;;;;;;4907207;29;20044;-75
2022/04/30 09:11:25;;;;;;;20.67;14.18;;;12.40;99.90;;;;;;4889444;29;20040;-75
2022/04/30 09:13:52;;;;;;;18.10;14.02;;;12.40;99.90;;;;;;4887214;29;20097;-74
2022/04/30 09:16:22;;;;;;;21.55;13.57;;;12.40;99.90;;;;;;4887307;29;20068;-74
2022/04/30 09:18:49;;;;;;;18.20;13.10;;;12.30;99.90;;;;;;4888164;29;20041;-73
2022/04/30 09:21:16;;;;;;;17.73;13.38;;;12.20;99.90;;;;;;4887398;29;20043;-74
2022/04/30 09:23:43;;;;;;;17.00;12.65;;;12.20;99.90;;;;;;4887762;29;20056;-76
2022/04/30 09:26:09;;;;;;;18.23;12.98;;;12.00;99.90;;;;;;4887928;29;20037;-76
2022/04/30 09:28:37;;;;;;;16.10;11.57;;;11.90;99.90;;;;;;4887141;29;20041;-75
2022/04/30 09:31:09;;;;;;;14.73;11.48;;;11.90;99.90;;;;;;4887173;29;20095;-75
2022/04/30 09:33:44;;;;;;;17.35;11.32;;;12.00;99.90;;;;;;4890286;29;20045;-76
2022/04/30 09:38:54;;;;;;;17.50;12.23;;;12.00;99.90;;;;;;4890961;29;20048;-76
2022/04/30 09:41:24;;;;;;;17.05;12.27;;;11.90;99.90;;;;;;4891682;29;20322;-76
2022/04/30 09:44:01;;;;;;;16.48;11.45;;;11.80;99.90;;;;;;4890891;29;20052;-76
2022/04/30 09:46:28;;;;;;;16.75;12.13;;;11.90;99.90;;;;;;4890724;29;20040;-76
2022/04/30 09:54:26;;;;;;;13.80;9.93;;;12.00;99.90;;;;;;4890179;29;20037;-77
2022/04/30 09:56:53;;;;;;;15.30;9.88;;;12.10;99.90;;;;;;4891846;29;20024;-75
2022/04/30 09:59:22;;;;;;;12.75;9.00;;;12.20;99.90;;;;;;4891463;29;20036;-74
2022/04/30 10:01:49;;;;;;;14.50;9.77;;;12.30;99.90;;;;;;4882550;29;20154;-80
2022/04/30 10:04:18;;;;;;;14.50;10.25;;;12.40;99.90;;;;;;4871653;29;20033;-74
2022/04/30 10:06:53;;;;;;;10.57;8.82;;;12.40;99.90;;;;;;4873268;29;20048;-75
2022/04/30 10:09:35;;;;;;;12.30;9.38;;;12.40;99.90;;;;;;4892869;29;20030;-79
2022/04/30 10:12:07;;;;;;;11.82;8.75;;;12.50;99.90;;;;;;4891969;29;20060;-77
2022/04/30 10:14:38;;;;;;;11.75;8.55;;;12.70;99.90;;;;;;4891261;29;20037;-75
2022/04/30 10:17:12;;;;;;;13.32;9.20;;;12.80;99.90;;;;;;4891202;29;20220;-73
2022/04/30 10:20:01;;;;;;;11.25;8.50;;;13.10;99.90;;;;;;4890259;29;20037;-75
2022/04/30 10:22:27;;;;;;;9.10;7.35;;;13.40;99.90;;;;;;4891432;29;20052;-77
2022/04/30 10:24:58;;;;;;;9.20;7.55;;;13.50;99.90;;;;;;4891634;29;20311;-75
2022/04/30 10:27:37;;;;;;;9.07;6.95;;;13.50;99.90;;;;;;4890873;29;20217;-75
2022/04/30 10:30:05;;;;;;;9.00;6.95;;;13.40;99.90;;;;;;4890856;29;20108;-76
2022/04/30 10:32:33;;;;;;;9.95;7.18;;;13.40;99.90;;;;;;4890741;29;20029;-76
2022/04/30 10:35:00;;;;;;;8.63;6.35;;;13.50;99.90;;;;;;4890927;29;20048;-75
2022/04/30 10:37:39;;;;;;;9.43;6.78;;;13.50;99.90;;;;;;4890509;29;20329;-75
2022/04/30 10:40:11;;;;;;;8.45;6.43;;;13.50;99.90;;;;;;4889846;29;20029;-76
2022/04/30 10:42:44;;;;;;;8.05;6.65;;;13.80;99.90;;;;;;4881756;29;20033;-75
2022/04/30 10:45:16;;;;;;;8.75;6.50;;;13.90;99.90;;;;;;4869691;29;20088;-77
2022/04/30 10:47:55;;;;;;;8.43;5.47;;;14.20;99.90;;;;;;4884977;29;20033;-75
2022/04/30 10:50:22;;;;;;;8.00;6.03;;;14.20;99.90;;;;;;4889738;29;20033;-75
2022/04/30 10:52:49;;;;;;;9.35;6.45;;;14.20;99.90;;;;;;4889090;29;20024;-75
2022/04/30 10:55:22;;;;;;;7.47;6.30;;;14.30;99.90;;;;;;4890314;29;20341;-75
2022/04/30 10:57:48;;;;;;;7.80;6.38;;;14.40;99.90;;;;;;4889966;29;20259;-77
2022/04/30 11:00:14;;;;;;;7.65;5.43;;;14.30;99.90;;;;;;4889759;29;20130;-77
2022/04/30 11:02:40;;;;;;;7.53;5.82;;;14.30;99.90;;;;;;4872888;29;20228;-77
2022/04/30 11:05:18;;;;;;;6.70;5.35;;;14.10;99.90;;;;;;4890247;29;20065;-75
2022/04/30 11:07:45;;;;;;;7.75;3.40;;;14.00;99.90;;;;;;4889162;29;20037;-75
2022/04/30 11:10:11;;;;;;;3.70;2.67;;;14.00;99.00;;;;;;4890054;29;20061;-74
2022/04/30 11:12:37;;;;;;;4.10;2.42;;;13.90;98.80;;;;;;4889506;29;20027;-75
2022/04/30 11:15:03;;;;;;;4.63;2.80;;;13.70;98.50;;;;;;4889845;29;20037;-76
2022/04/30 11:17:29;;;;;;;6.32;3.72;;;13.50;99.30;;;;;;4889496;29;20047;-76
2022/04/30 11:19:55;;;;;;;6.07;3.17;;;13.40;99.30;;;;;;4890281;29;20053;-77
2022/04/30 11:22:23;;;;;;;5.43;3.10;;;13.40;99.50;;;;;;4890521;29;20338;-74
2022/04/30 11:24:49;;;;;;;5.63;2.58;;;13.40;99.30;;;;;;4889071;29;20041;-75
2022/04/30 11:27:15;;;;;;;4.30;2.85;;;13.60;99.80;;;;;;4888397;29;20085;-75
2022/04/30 11:29:52;;;;;;;3.63;2.92;;;13.80;98.60;;;;;;4889249;29;20048;-75
2022/04/30 11:32:27;;;;;;;3.40;2.72;;;14.10;98.20;;;;;;4889592;29;20040;-77
2022/04/30 11:35:01;;;;;;;3.88;2.80;;;14.40;97.70;;;;;;4889959;29;20056;-74
2022/04/30 11:37:27;;;;;;;4.20;3.13;;;15.00;97.40;;;;;;4889304;29;20316;-75
2022/04/30 11:39:53;;;;;;;3.72;2.80;;;15.80;96.20;;;;;;4889695;29;20028;-76
2022/04/30 11:42:25;;;;;;;4.75;3.00;;;16.20;95.20;;;;;;4889602;29;20037;-75
2022/04/30 11:44:54;;;;;;;4.45;2.83;;;16.60;93.50;;;;;;4889333;29;20033;-76
2022/04/30 11:47:20;;;;;;;;;;;16.60;92.70;;;;;;4889847;29;20116;-75
2022/04/30 11:49:46;;;;;;;4.05;3.00;;;16.80;92.60;;;;;;4889603;29;19926;-75
2022/04/30 11:52:14;;;;;;;4.13;3.13;;;17.00;92.00;;;;;;4889940;29;20136;-76
2022/04/30 11:54:40;;;;;;;3.78;3.00;;;17.40;91.50;;;;;;4887723;29;20049;-76
2022/04/30 11:57:07;;;;;;;3.30;2.53;;;17.70;91.20;;;;;;4888448;29;20097;-75
2022/04/30 11:59:37;;;;;;;4.65;3.30;;;17.40;90.50;;;;;;4888923;29;20056;-75
2022/04/30 12:02:11;;;;;;;3.80;2.95;;;17.00;91.40;;;;;;4887933;29;20116;-75
2022/04/30 12:04:41;;;;;;;4.10;3.00;;;16.60;92.00;;;;;;4888966;29;20036;-76
2022/04/30 12:07:08;;;;;;;3.60;2.80;;;16.50;92.70;;;;;;4889662;29;20040;-75
2022/04/30 12:09:38;;;;;;;4.15;3.20;;;16.80;91.60;;;;;;4887733;29;20043;-75
2022/04/30 12:12:17;;;;;;;4.38;2.88;;;17.10;91.00;;;;;;4889439;29;20037;-75
2022/04/30 12:14:51;;;;;;;4.15;3.47;;;18.40;90.40;;;;;;4888455;29;20049;-76
2022/04/30 12:17:17;;;;;;;3.63;2.70;;;19.10;87.20;;;;;;4888478;29;20053;-76
2022/04/30 12:25:33;;;;;;;4.10;2.90;;;17.20;90.60;;;;;;4868026;29;20052;-78
2022/04/30 12:28:02;;;;;;;4.47;3.42;;;17.00;91.00;;;;;;4853421;29;20097;-77
2022/04/30 12:30:28;;;;;;;3.92;3.25;;;16.80;91.10;;;;;;4877145;29;20043;-76
2022/04/30 12:33:04;;;;;;;4.07;3.30;;;16.80;90.90;;;;;;4889066;29;20129;-75
2022/04/30 12:35:34;;;;;;;3.97;3.10;;;17.00;90.70;;;;;;4887693;29;20100;-76
2022/04/30 12:38:05;;;;;;;3.30;2.90;;;18.30;88.60;;;;;;4887911;29;20040;-76
2022/04/30 12:40:33;;;;;;;3.97;3.00;;;19.90;83.60;;;;;;4888764;29;20124;-77
2022/04/30 12:42:59;;;;;;;3.92;2.95;;;20.20;81.50;;;;;;4888717;29;20103;-75
2022/04/30 12:45:25;;;;;;;3.40;2.80;;;19.50;82.40;;;;;;4887797;29;20045;-77
2022/04/30 12:47:51;;;;;;;4.10;2.85;;;18.60;84.20;;;;;;4881209;29;20029;-77
2022/04/30 12:50:17;;;;;;;4.13;3.10;;;17.80;87.00;;;;;;4887317;29;20033;-76
2022/04/30 12:52:43;;;;;;;3.83;3.22;;;17.30;88.60;;;;;;4887064;29;20225;-76
2022/04/30 12:55:11;;;;;;;5.28;4.00;;;16.90;90.20;;;;;;4887487;29;20029;-77
2022/04/30 12:57:37;;;;;;;;;;;16.60;90.50;;;;;;4888240;29;20277;-77
2022/04/30 13:00:05;;;;;;;5.15;3.85;;;15.90;91.20;;;;;;4887592;29;20190;-76
2022/04/30 13:02:31;;;;;;;5.22;4.57;;;15.60;92.00;;;;;;4886564;29;20067;-76
2022/04/30 13:04:57;;;;;;;5.72;4.30;;;15.50;92.20;;;;;;4888288;29;20089;-77
2022/04/30 13:07:24;;;;;;;5.25;4.30;;;15.20;92.20;;;;;;4886697;29;20053;-79
2022/04/30 13:15:19;;;;;;;4.93;3.95;;;14.50;92.20;;;;;;4886772;29;20041;-76
2022/04/30 13:17:45;;;;;;;6.95;4.75;;;14.20;92.80;;;;;;4887091;29;20286;-77
2022/04/30 13:20:12;;;;;;;7.13;5.00;;;14.10;93.00;;;;;;4887916;29;20207;-76
2022/04/30 13:22:38;;;;;;;8.38;6.35;;;14.00;93.40;;;;;;4887787;29;20040;-78
2022/04/30 13:25:04;;;;;;;8.55;6.68;;;13.80;93.50;;;;;;4887941;29;20092;-76
2022/04/30 13:27:31;;;;;;;10.00;7.80;;;13.60;93.90;;;;;;4887542;29;20152;-76
2022/04/30 13:29:57;;;;;;;9.68;7.95;;;13.50;94.30;;;;;;4887869;29;20359;-78
2022/04/30 13:32:23;;;;;;;9.77;7.88;;;13.50;94.70;;;;;;4887465;29;20045;-80
2022/04/30 13:34:49;;;;;;;9.73;8.40;;;13.50;94.90;;;;;;4885110;29;20147;-77
2022/04/30 13:37:14;;;;;;;10.85;8.68;;;13.50;94.80;;;;;;4888231;29;20021;-80
2022/04/30 13:39:40;;;;;;;11.88;8.98;;;13.60;94.60;;;;;;4888200;29;20029;-77
2022/04/30 13:42:12;;;;;;;12.60;9.13;;;13.60;94.60;;;;;;4883715;29;20031;-79
2022/04/30 13:44:38;;;;;;;11.75;9.27;;;13.70;94.60;;;;;;4867585;29;20030;-77
2022/04/30 13:47:04;;;;;;;13.25;9.82;;;13.70;94.70;;;;;;4882835;29;20245;-81
2022/04/30 13:49:29;;;;;;;12.13;8.93;;;13.70;94.70;;;;;;4869315;29;20322;-76
2022/04/30 13:51:55;;;;;;;11.68;9.45;;;14.00;94.50;;;;;;4868259;29;20030;-80
2022/04/30 13:54:21;;;;;;;12.63;9.52;;;14.10;94.40;;;;;;4868109;29;20231;-77
2022/04/30 13:56:48;;;;;;;11.32;9.00;;;14.40;94.20;;;;;;4868755;29;20078;-78
2022/04/30 13:59:19;;;;;;;13.95;9.45;;;14.50;93.90;;;;;;4868050;29;20040;-77
2022/04/30 14:01:44;;;;;;;12.45;9.35;;;14.50;93.40;;;;;;4867271;29;20101;-76
2022/04/30 14:04:10;;;;;;;12.23;9.45;;;14.40;93.20;;;;;;4869695;29;20041;-78
2022/04/30 14:06:36;;;;;;;11.15;8.85;;;14.40;93.10;;;;;;4867579;29;20212;-77
2022/04/30 14:09:02;;;;;;;10.13;8.13;;;14.40;93.40;;;;;;4883393;29;20039;-78
2022/04/30 14:11:28;;;;;;;11.55;9.07;;;14.50;93.60;;;;;;4887933;29;20036;-79
2022/04/30 14:16:39;;;;;;;11.82;8.95;;;14.80;92.80;;;;;;4868353;29;20086;-77
2022/04/30 14:19:05;;;;;;;11.02;8.75;;;15.00;92.40;;;;;;4879861;29;20107;-78
2022/04/30 14:21:30;;;;;;;10.10;8.30;;;15.30;92.30;;;;;;4891031;29;20230;-79
2022/04/30 14:23:56;;;;;;;10.68;7.75;;;15.70;91.30;;;;;;4890858;29;20069;-78
2022/04/30 14:26:22;;;;;;;11.27;8.07;;;15.90;90.60;;;;;;4891096;29;20037;-77
2022/04/30 14:28:48;;;;;;;9.63;7.80;;;16.00;90.60;;;;;;4891656;29;20041;-76
2022/04/30 14:31:14;;;;;;;8.73;7.50;;;16.30;90.00;;;;;;4873900;29;20069;-77
2022/04/30 14:33:40;;;;;;;8.82;7.07;;;16.30;90.50;;;;;;4890352;29;20048;-77
2022/04/30 14:36:09;;;;;;;8.15;6.22;;;17.30;87.50;;;;;;4890684;29;20069;-77
2022/04/30 14:38:36;;;;;;;7.45;6.03;;;18.20;85.90;;;;;;4889387;29;20252;-77
2022/04/30 14:41:04;;;;;;;7.25;6.03;;;20.50;78.40;;;;;;4889629;29;20039;-76
2022/04/30 14:43:29;;;;;;;8.55;6.50;;;20.60;77.00;;;;;;4889233;29;20033;-80
2022/04/30 14:45:56;;;;;;;8.38;5.72;;;21.00;76.10;;;;;;4887204;29;20049;-78
2022/04/30 14:48:21;;;;;;;8.68;6.10;;;20.70;75.90;;;;;;4877487;29;20030;-78
2022/04/30 14:50:47;;;;;;;6.95;5.70;;;19.70;78.50;;;;;;4888462;29;20105;-78
2022/04/30 14:53:13;;;;;;;7.15;5.70;;;18.80;79.40;;;;;;4890515;29;20036;-78
2022/04/30 14:55:39;;;;;;;7.07;5.90;;;18.00;81.40;;;;;;4890333;29;20033;-79
2022/04/30 14:58:05;;;;;;;7.30;5.93;;;17.40;83.10;;;;;;4891007;29;20033;-78
2022/04/30 15:00:30;;;;;;;7.07;5.25;;;18.60;81.70;;;;;;4887626;29;20049;-77
2022/04/30 15:02:56;;;;;;;6.47;5.30;;;21.30;75.30;;;;;;4890030;29;20045;-79
2022/04/30 15:05:22;;;;;;;7.20;5.40;;;23.10;69.30;;;;;;4890611;29;20037;-78
2022/04/30 15:07:48;;;;;;;5.50;4.63;;;23.70;67.60;;;;;;4889499;29;20299;-78
2022/04/30 15:10:16;;;;;;;5.65;4.70;;;23.70;66.90;;;;;;4890447;29;20044;-76
2022/04/30 15:12:44;;;;;;;7.22;5.03;;;23.30;67.80;;;;;;4889683;29;20325;-77
2022/04/30 15:15:11;;;;;;;6.15;5.15;;;23.00;68.10;;;;;;4887313;29;20044;-77
2022/04/30 15:17:37;;;;;;;5.40;4.50;;;22.60;68.40;;;;;;4885536;29;20033;-79
2022/04/30 15:20:05;;;;;;;5.57;4.63;;;20.90;70.50;;;;;;4890008;29;20049;-78
2022/04/30 15:22:31;;;;;;;6.63;5.47;;;19.60;74.80;;;;;;4888997;29;20135;-77
2022/04/30 15:24:56;;;;;;;7.93;5.32;;;18.60;77.20;;;;;;4889599;29;20065;-78
2022/04/30 15:27:22;;;;;;;6.82;5.05;;;19.30;76.40;;;;;;4888828;29;20032;-78
2022/04/30 15:29:51;;;;;;;6.63;5.28;;;18.90;76.40;;;;;;4888892;29;20295;-77
2022/04/30 15:32:16;;;;;;;;;;;18.00;78.50;;;;;;4887513;29;20041;-77
2022/04/30 15:34:43;;;;;;;6.93;5.25;;;17.00;81.70;;;;;;4887906;29;20206;-78
2022/04/30 15:37:08;;;;;;;6.95;5.53;;;16.30;84.20;;;;;;4889567;29;20112;-78
2022/04/30 15:39:34;;;;;;;7.53;5.68;;;16.00;86.20;;;;;;4888145;29;20029;-79
2022/04/30 15:42:00;;;;;;;6.80;5.53;;;15.60;87.10;;;;;;4889022;29;20344;-76
2022/04/30 15:44:27;;;;;;;7.78;6.25;;;15.30;88.30;;;;;;4887594;29;20040;-77
2022/04/30 15:52:22;;;;;;;8.93;6.15;;;16.90;84.00;;;;;;4889249;29;20033;-78
2022/04/30 15:54:48;;;;;;;7.65;6.00;;;16.90;82.10;;;;;;4888772;29;20033;-77
2022/04/30 15:57:14;;;;;;;7.90;5.47;;;16.60;82.60;;;;;;4887790;29;20226;-77
2022/04/30 15:59:44;;;;;;;9.75;6.63;;;16.00;84.90;;;;;;4887211;29;20025;-78
2022/04/30 16:02:10;;;;;;;9.00;6.82;;;15.60;86.70;;;;;;4887676;29;20057;-77
2022/04/30 16:04:41;;;;;;;10.18;7.20;;;15.40;87.10;;;;;;4887656;29;20031;-78
2022/04/30 16:07:09;;;;;;;8.48;7.03;;;15.10;88.00;;;;;;4887415;29;20029;-77
2022/04/30 16:09:35;;;;;;;10.10;7.15;;;14.90;89.70;;;;;;4887909;29;20021;-78
2022/04/30 16:12:01;;;;;;;8.88;6.90;;;14.80;90.10;;;;;;4886820;29;20044;-78
2022/04/30 16:14:26;;;;;;;9.70;6.70;;;14.70;90.30;;;;;;4888718;29;20076;-78
2022/04/30 16:16:55;;;;;;;8.85;7.38;;;14.60;90.80;;;;;;4873803;29;20049;-78
2022/04/30 16:19:21;;;;;;;11.02;7.28;;;14.40;90.80;;;;;;4888211;29;20199;-77
2022/04/30 16:21:48;;;;;;;11.02;7.55;;;14.10;91.40;;;;;;4887952;29;20033;-78
2022/04/30 16:24:16;;;;;;;12.20;7.50;;;13.90;92.00;;;;;;4885857;29;20382;-78
2022/04/30 16:26:42;;;;;;;10.35;7.78;;;13.70;92.60;;;;;;4886259;29;20033;-77
2022/04/30 16:29:11;;;;;;;13.05;8.27;;;13.70;92.90;;;;;;4887401;29;20039;-78
2022/04/30 16:31:37;;;;;;;;;;;13.70;92.80;;;;;;4876581;29;20042;-77
2022/04/30 16:34:04;;;;;;;13.07;8.00;;;13.50;92.70;;;;;;4868752;29;20102;-78
2022/04/30 16:36:31;;;;;;;11.35;7.72;;;13.30;93.20;;;;;;4868535;29;20075;-80
2022/04/30 16:39:01;;;;;;;11.35;8.52;;;13.20;93.50;;;;;;4869223;29;20334;-77
2022/04/30 16:41:52;;;;;;;10.65;7.82;;;13.00;93.80;;;;;;4867795;29;20108;-79
2022/04/30 16:44:18;;;;;;;13.52;8.35;;;12.90;94.10;;;;;;4851484;29;20055;-80
2022/04/30 16:46:48;;;;;;;12.68;9.15;;;12.70;94.30;;;;;;4849271;29;20408;-78
2022/04/30 16:49:14;;;;;;;11.80;9.00;;;12.70;94.40;;;;;;4855127;29;20033;-80
2022/04/30 16:57:12;;;;;;;11.82;8.85;;;12.60;94.10;;;;;;4868943;29;20264;-79
2022/04/30 16:59:39;;;;;;;13.52;8.85;;;12.50;94.40;;;;;;4868475;29;20030;-79
2022/04/30 17:02:11;;;;;;;13.13;8.88;;;12.50;94.80;;;;;;4902747;29;22089;-79
2022/04/30 17:04:39;;;;;;;11.48;8.32;;;12.40;94.80;;;;;;4888055;29;20028;-79
2022/04/30 17:07:17;;;;;;;14.75;9.60;;;12.30;95.20;;;;;;4888168;29;20226;-79
2022/04/30 17:09:46;;;;;;;12.48;9.05;;;12.20;95.60;;;;;;4886683;29;20044;-78
2022/04/30 17:12:15;;;;;;;11.63;8.85;;;12.00;95.40;;;;;;4888261;29;20080;-79
2022/04/30 17:14:41;;;;;;;12.75;8.32;;;12.00;95.60;;;;;;4886594;29;20045;-79
2022/04/30 17:17:07;;;;;;;13.05;8.07;;;12.00;95.60;;;;;;4884788;29;20111;-79
2022/04/30 17:19:34;;;;;;;12.80;8.73;;;12.00;95.40;;;;;;4888184;29;20044;-78
2022/04/30 17:21:59;;;;;;;14.90;9.55;;;11.80;95.70;;;;;;4870017;29;20021;-78
2022/04/30 17:24:26;;;;;;;11.85;8.57;;;11.80;95.70;;;;;;4871350;29;20105;-78
2022/04/30 17:26:52;;;;;;;13.43;9.38;;;11.80;95.70;;;;;;4870363;29;20025;-77
2022/04/30 17:29:17;;;;;;;12.90;8.80;;;11.70;96.10;;;;;;4887706;29;20033;-79
2022/04/30 17:39:56;;;;;;;13.07;9.93;;;11.40;96.80;;;;;;4885027;29;20033;-77
2022/04/30 17:42:23;;;;;;;15.68;10.63;;;11.40;96.90;;;;;;4887952;29;20117;-79
2022/04/30 17:44:48;;;;;;;15.93;10.82;;;11.30;97.10;;;;;;4886227;29;20051;-80
2022/04/30 17:47:14;;;;;;;15.82;10.90;;;11.20;97.40;;;;;;4887630;29;20218;-81
2022/04/30 17:49:41;;;;;;;16.83;11.07;;;11.20;97.80;;;;;;4887956;29;20118;-78
2022/04/30 17:52:07;;;;;;;18.05;12.05;;;11.30;97.80;;;;;;4887515;29;20033;-78
2022/04/30 17:54:32;;;;;;;17.55;13.25;;;11.10;97.90;;;;;;4891406;29;20051;-78
2022/04/30 17:56:58;;;;;;;17.88;12.77;;;11.10;98.00;;;;;;4874624;29;20307;-78
2022/04/30 17:59:24;;;;;;;17.10;12.50;;;11.10;98.30;;;;;;4891290;29;20060;-78
2022/04/30 18:01:50;;;;;;;19.85;12.50;;;11.00;98.40;;;;;;4890471;29;20243;-78
2022/04/30 18:04:17;;;;;;;18.88;13.00;;;11.00;98.50;;;;;;4891781;29;20307;-79
2022/04/30 18:06:43;;;;;;;17.30;12.75;;;10.90;98.70;;;;;;4891510;29;20052;-76
2022/04/30 18:09:09;;;;;;;18.90;12.57;;;10.80;98.80;;;;;;4890092;29;20053;-80
2022/04/30 18:11:35;;;;;;;18.17;13.38;;;10.90;98.90;;;;;;4890246;29;20081;-78
2022/04/30 18:14:00;;;;;;;20.48;13.95;;;10.80;99.10;;;;;;4890723;29;20204;-76
2022/04/30 18:16:27;;;;;;;18.55;13.10;;;10.80;99.40;;;;;;4889528;29;20051;-76
2022/04/30 18:18:53;;;;;;;19.58;13.77;;;10.70;99.50;;;;;;4890839;29;20092;-77
2022/04/30 18:21:18;;;;;;;20.20;14.13;;;10.70;99.70;;;;;;4891346;29;20077;-77
2022/04/30 18:23:45;;;;;;;20.15;14.18;;;10.60;99.90;;;;;;4891083;29;20041;-78
2022/04/30 18:26:11;;;;;;;18.92;13.63;;;10.60;99.80;;;;;;4890000;29;20362;-77
2022/04/30 18:28:37;;;;;;;19.48;14.57;;;10.60;99.90;;;;;;4873899;29;20092;-76